sensor_id;sensor_type;location;lat;lon;timestamp;P1;durP1;ratioP1;P2;durP2;ratioP2
14187;SDS011;7175;51.978;5.330;2024-02-21T00:01:07;33.40;;;31.00;;
14187;SDS011;7175;51.978;5.330;2024-02-21T00:03:35;33.90;;;31.50;;
14187;SDS011;7175;51.978;5.330;2024-02-21T00:06:04;36.17;;;33.57;;
14187;SDS011;7175;51.978;5.330;2024-02-21T00:08:32;33.53;;;31.13;;
14187;SDS011;7175;51.978;5.330;2024-02-21T00:11:01;34.63;;;32.13;;
14187;SDS011;7175;51.978;5.330;2024-02-21T00:13:31;35.33;;;32.83;;
14187;SDS011;7175;51.978;5.330;2024-02-21T00:16:00;34.00;;;31.60;;
14187;SDS011;7175;51.978;5.330;2024-02-21T00:18:29;34.70;;;32.20;;
14187;SDS011;7175;51.978;5.330;2024-02-21T00:20:57;34.07;;;31.57;;
14187;SDS011;7175;51.978;5.330;2024-02-21T00:23:28;34.73;;;32.23;;
14187;SDS011;7175;51.978;5.330;2024-02-21T00:25:56;34.20;;;31.70;;
14187;SDS011;7175;51.978;5.330;2024-02-21T00:28:25;33.60;;;31.10;;
14187;SDS011;7175;51.978;5.330;2024-02-21T00:30:55;34.10;;;31.60;;
14187;SDS011;7175;51.978;5.330;2024-02-21T00:33:23;34.43;;;31.93;;
14187;SDS011;7175;51.978;5.330;2024-02-21T00:35:51;33.73;;;31.23;;
14187;SDS011;7175;51.978;5.330;2024-02-21T00:38:20;34.80;;;32.30;;
14187;SDS011;7175;51.978;5.330;2024-02-21T00:40:48;35.47;;;32.87;;
14187;SDS011;7175;51.978;5.330;2024-02-21T00:43:17;36.10;;;33.50;;
14187;SDS011;7175;51.978;5.330;2024-02-21T00:45:45;35.67;;;33.10;;
14187;SDS011;7175;51.978;5.330;2024-02-21T00:48:15;36.03;;;33.43;;
14187;SDS011;7175;51.978;5.330;2024-02-21T00:50:44;36.20;;;33.60;;
14187;SDS011;7175;51.978;5.330;2024-02-21T00:53:13;36.30;;;33.70;;
14187;SDS011;7175;51.978;5.330;2024-02-21T00:55:42;37.10;;;34.40;;
14187;SDS011;7175;51.978;5.330;2024-02-21T00:58:10;35.87;;;33.27;;
14187;SDS011;7175;51.978;5.330;2024-02-21T01:00:38;36.83;;;34.13;;
14187;SDS011;7175;51.978;5.330;2024-02-21T01:03:07;34.77;;;32.27;;
14187;SDS011;7175;51.978;5.330;2024-02-21T01:05:37;35.50;;;32.90;;
14187;SDS011;7175;51.978;5.330;2024-02-21T01:08:06;36.60;;;33.90;;
14187;SDS011;7175;51.978;5.330;2024-02-21T01:10:34;36.83;;;34.13;;
14187;SDS011;7175;51.978;5.330;2024-02-21T01:13:03;36.90;;;34.20;;
14187;SDS011;7175;51.978;5.330;2024-02-21T01:15:32;37.10;;;34.43;;
14187;SDS011;7175;51.978;5.330;2024-02-21T01:18:00;35.87;;;33.27;;
14187;SDS011;7175;51.978;5.330;2024-02-21T01:20:29;37.60;;;34.83;;
14187;SDS011;7175;51.978;5.330;2024-02-21T01:22:59;37.27;;;34.57;;
14187;SDS011;7175;51.978;5.330;2024-02-21T01:25:27;36.63;;;33.93;;
14187;SDS011;7175;51.978;5.330;2024-02-21T01:27:56;38.03;;;35.30;;
14187;SDS011;7175;51.978;5.330;2024-02-21T01:30:24;37.53;;;34.83;;
14187;SDS011;7175;51.978;5.330;2024-02-21T01:32:52;37.63;;;34.93;;
14187;SDS011;7175;51.978;5.330;2024-02-21T01:35:21;37.43;;;34.73;;
14187;SDS011;7175;51.978;5.330;2024-02-21T01:37:49;36.80;;;34.17;;
14187;SDS011;7175;51.978;5.330;2024-02-21T01:40:20;36.90;;;34.20;;
14187;SDS011;7175;51.978;5.330;2024-02-21T01:42:48;36.73;;;34.03;;
14187;SDS011;7175;51.978;5.330;2024-02-21T01:45:16;36.07;;;33.47;;
14187;SDS011;7175;51.978;5.330;2024-02-21T01:47:45;35.20;;;32.60;;
14187;SDS011;7175;51.978;5.330;2024-02-21T01:50:13;35.60;;;33.00;;
14187;SDS011;7175;51.978;5.330;2024-02-21T01:52:42;35.97;;;33.37;;
14187;SDS011;7175;51.978;5.330;2024-02-21T01:55:11;35.30;;;32.70;;
14187;SDS011;7175;51.978;5.330;2024-02-21T01:57:43;35.00;;;32.50;;
14187;SDS011;7175;51.978;5.330;2024-02-21T02:00:13;34.03;;;31.53;;
14187;SDS011;7175;51.978;5.330;2024-02-21T02:02:41;35.10;;;32.50;;
14187;SDS011;7175;51.978;5.330;2024-02-21T02:05:11;33.53;;;31.03;;
14187;SDS011;7175;51.978;5.330;2024-02-21T02:07:39;34.47;;;31.93;;
14187;SDS011;7175;51.978;5.330;2024-02-21T02:10:08;35.47;;;32.87;;
14187;SDS011;7175;51.978;5.330;2024-02-21T02:12:37;34.67;;;32.17;;
14187;SDS011;7175;51.978;5.330;2024-02-21T02:15:07;34.80;;;32.23;;
14187;SDS011;7175;51.978;5.330;2024-02-21T02:17:36;34.63;;;32.03;;
14187;SDS011;7175;51.978;5.330;2024-02-21T02:20:04;35.17;;;32.57;;
14187;SDS011;7175;51.978;5.330;2024-02-21T02:22:33;34.40;;;31.90;;
14187;SDS011;7175;51.978;5.330;2024-02-21T02:25:05;34.53;;;32.03;;
14187;SDS011;7175;51.978;5.330;2024-02-21T02:27:40;33.23;;;30.73;;
14187;SDS011;7175;51.978;5.330;2024-02-21T02:30:10;34.63;;;32.13;;
14187;SDS011;7175;51.978;5.330;2024-02-21T02:32:39;34.97;;;32.40;;
14187;SDS011;7175;51.978;5.330;2024-02-21T02:35:07;34.23;;;31.73;;
14187;SDS011;7175;51.978;5.330;2024-02-21T02:37:36;33.97;;;31.47;;
14187;SDS011;7175;51.978;5.330;2024-02-21T02:40:08;33.63;;;31.13;;
14187;SDS011;7175;51.978;5.330;2024-02-21T02:42:36;34.30;;;31.80;;
14187;SDS011;7175;51.978;5.330;2024-02-21T02:45:05;33.93;;;31.43;;
14187;SDS011;7175;51.978;5.330;2024-02-21T02:47:33;34.33;;;31.83;;
14187;SDS011;7175;51.978;5.330;2024-02-21T02:50:02;34.60;;;32.10;;
14187;SDS011;7175;51.978;5.330;2024-02-21T02:52:31;34.33;;;31.83;;
14187;SDS011;7175;51.978;5.330;2024-02-21T02:54:59;35.23;;;32.63;;
14187;SDS011;7175;51.978;5.330;2024-02-21T02:57:29;34.77;;;32.17;;
14187;SDS011;7175;51.978;5.330;2024-02-21T02:59:58;36.37;;;33.77;;
14187;SDS011;7175;51.978;5.330;2024-02-21T03:02:26;35.47;;;32.87;;
14187;SDS011;7175;51.978;5.330;2024-02-21T03:04:57;34.57;;;32.07;;
14187;SDS011;7175;51.978;5.330;2024-02-21T03:07:26;34.03;;;31.53;;
14187;SDS011;7175;51.978;5.330;2024-02-21T03:09:54;34.87;;;32.37;;
14187;SDS011;7175;51.978;5.330;2024-02-21T03:12:23;35.27;;;32.67;;
14187;SDS011;7175;51.978;5.330;2024-02-21T03:14:55;35.93;;;33.33;;
14187;SDS011;7175;51.978;5.330;2024-02-21T03:17:24;34.97;;;32.40;;
14187;SDS011;7175;51.978;5.330;2024-02-21T03:19:53;34.60;;;32.10;;
14187;SDS011;7175;51.978;5.330;2024-02-21T03:22:22;35.37;;;32.77;;
14187;SDS011;7175;51.978;5.330;2024-02-21T03:24:50;35.37;;;32.77;;
14187;SDS011;7175;51.978;5.330;2024-02-21T03:27:19;34.70;;;32.13;;
14187;SDS011;7175;51.978;5.330;2024-02-21T03:29:47;35.37;;;32.77;;
14187;SDS011;7175;51.978;5.330;2024-02-21T03:32:17;34.93;;;32.33;;
14187;SDS011;7175;51.978;5.330;2024-02-21T03:34:45;34.57;;;32.07;;
14187;SDS011;7175;51.978;5.330;2024-02-21T03:37:14;35.70;;;33.10;;
14187;SDS011;7175;51.978;5.330;2024-02-21T03:39:42;36.47;;;33.77;;
14187;SDS011;7175;51.978;5.330;2024-02-21T03:42:11;36.43;;;33.73;;
14187;SDS011;7175;51.978;5.330;2024-02-21T03:44:39;35.57;;;32.97;;
14187;SDS011;7175;51.978;5.330;2024-02-21T03:47:08;35.73;;;33.13;;
14187;SDS011;7175;51.978;5.330;2024-02-21T03:49:39;34.90;;;32.40;;
14187;SDS011;7175;51.978;5.330;2024-02-21T03:52:07;35.50;;;32.90;;
14187;SDS011;7175;51.978;5.330;2024-02-21T03:54:37;35.17;;;32.67;;
14187;SDS011;7175;51.978;5.330;2024-02-21T03:57:05;34.67;;;32.17;;
14187;SDS011;7175;51.978;5.330;2024-02-21T03:59:33;34.43;;;31.93;;
14187;SDS011;7175;51.978;5.330;2024-02-21T04:02:02;34.30;;;31.80;;
14187;SDS011;7175;51.978;5.330;2024-02-21T04:04:35;33.77;;;31.27;;
14187;SDS011;7175;51.978;5.330;2024-02-21T04:07:05;35.03;;;32.43;;
14187;SDS011;7175;51.978;5.330;2024-02-21T04:09:34;33.97;;;31.37;;
14187;SDS011;7175;51.978;5.330;2024-02-21T04:12:03;35.13;;;32.53;;
14187;SDS011;7175;51.978;5.330;2024-02-21T04:14:32;33.03;;;30.53;;
14187;SDS011;7175;51.978;5.330;2024-02-21T04:17:01;31.73;;;29.23;;
14187;SDS011;7175;51.978;5.330;2024-02-21T04:19:29;32.87;;;30.37;;
14187;SDS011;7175;51.978;5.330;2024-02-21T04:21:58;32.13;;;29.63;;
14187;SDS011;7175;51.978;5.330;2024-02-21T04:24:28;33.37;;;30.87;;
14187;SDS011;7175;51.978;5.330;2024-02-21T04:26:56;33.27;;;30.77;;
14187;SDS011;7175;51.978;5.330;2024-02-21T04:29:25;32.53;;;30.03;;
14187;SDS011;7175;51.978;5.330;2024-02-21T04:31:54;34.03;;;31.53;;
14187;SDS011;7175;51.978;5.330;2024-02-21T04:34:23;33.63;;;31.13;;
14187;SDS011;7175;51.978;5.330;2024-02-21T04:36:56;33.57;;;31.07;;
14187;SDS011;7175;51.978;5.330;2024-02-21T04:39:24;33.37;;;30.87;;
14187;SDS011;7175;51.978;5.330;2024-02-21T04:41:54;34.17;;;31.67;;
14187;SDS011;7175;51.978;5.330;2024-02-21T04:44:23;35.03;;;32.47;;
14187;SDS011;7175;51.978;5.330;2024-02-21T04:46:51;34.47;;;31.87;;
14187;SDS011;7175;51.978;5.330;2024-02-21T04:49:19;35.43;;;32.83;;
14187;SDS011;7175;51.978;5.330;2024-02-21T04:51:48;34.80;;;32.20;;
14187;SDS011;7175;51.978;5.330;2024-02-21T04:54:16;34.20;;;31.70;;
14187;SDS011;7175;51.978;5.330;2024-02-21T04:56:45;34.13;;;31.63;;
14187;SDS011;7175;51.978;5.330;2024-02-21T04:59:17;34.40;;;31.80;;
14187;SDS011;7175;51.978;5.330;2024-02-21T05:01:46;33.17;;;30.67;;
14187;SDS011;7175;51.978;5.330;2024-02-21T05:04:14;33.33;;;30.83;;
14187;SDS011;7175;51.978;5.330;2024-02-21T05:06:43;32.53;;;30.03;;
14187;SDS011;7175;51.978;5.330;2024-02-21T05:09:12;32.67;;;30.17;;
14187;SDS011;7175;51.978;5.330;2024-02-21T05:11:40;32.43;;;29.93;;
14187;SDS011;7175;51.978;5.330;2024-02-21T05:14:08;33.70;;;31.17;;
14187;SDS011;7175;51.978;5.330;2024-02-21T05:16:39;31.50;;;29.00;;
14187;SDS011;7175;51.978;5.330;2024-02-21T05:19:08;32.63;;;30.13;;
14187;SDS011;7175;51.978;5.330;2024-02-21T05:21:36;32.63;;;30.13;;
14187;SDS011;7175;51.978;5.330;2024-02-21T05:24:05;33.10;;;30.50;;
14187;SDS011;7175;51.978;5.330;2024-02-21T05:26:33;32.63;;;30.03;;
14187;SDS011;7175;51.978;5.330;2024-02-21T05:29:02;32.67;;;29.97;;
14187;SDS011;7175;51.978;5.330;2024-02-21T05:31:42;32.80;;;30.13;;
14187;SDS011;7175;51.978;5.330;2024-02-21T05:34:12;32.97;;;30.37;;
14187;SDS011;7175;51.978;5.330;2024-02-21T05:36:41;32.70;;;30.10;;
14187;SDS011;7175;51.978;5.330;2024-02-21T05:39:09;30.90;;;28.40;;
14187;SDS011;7175;51.978;5.330;2024-02-21T05:41:38;32.63;;;30.03;;
14187;SDS011;7175;51.978;5.330;2024-02-21T05:44:06;33.53;;;30.83;;
14187;SDS011;7175;51.978;5.330;2024-02-21T05:46:35;33.57;;;30.87;;
14187;SDS011;7175;51.978;5.330;2024-02-21T05:49:03;34.00;;;31.30;;
14187;SDS011;7175;51.978;5.330;2024-02-21T05:51:34;35.73;;;32.93;;
14187;SDS011;7175;51.978;5.330;2024-02-21T05:54:03;33.93;;;31.23;;
14187;SDS011;7175;51.978;5.330;2024-02-21T05:56:31;33.43;;;30.77;;
14187;SDS011;7175;51.978;5.330;2024-02-21T05:58:59;32.93;;;30.23;;
14187;SDS011;7175;51.978;5.330;2024-02-21T06:01:28;31.17;;;28.57;;
14187;SDS011;7175;51.978;5.330;2024-02-21T06:03:56;32.60;;;30.00;;
14187;SDS011;7175;51.978;5.330;2024-02-21T06:06:25;31.83;;;29.23;;
14187;SDS011;7175;51.978;5.330;2024-02-21T06:08:54;34.03;;;31.23;;
14187;SDS011;7175;51.978;5.330;2024-02-21T06:11:25;34.60;;;31.80;;
14187;SDS011;7175;51.978;5.330;2024-02-21T06:13:53;34.67;;;31.87;;
14187;SDS011;7175;51.978;5.330;2024-02-21T06:16:22;34.50;;;31.70;;
14187;SDS011;7175;51.978;5.330;2024-02-21T06:18:51;33.13;;;30.40;;
14187;SDS011;7175;51.978;5.330;2024-02-21T06:21:19;33.67;;;30.87;;
14187;SDS011;7175;51.978;5.330;2024-02-21T06:23:47;34.90;;;32.07;;
14187;SDS011;7175;51.978;5.330;2024-02-21T06:26:17;33.60;;;30.80;;
14187;SDS011;7175;51.978;5.330;2024-02-21T06:28:45;33.70;;;30.90;;
14187;SDS011;7175;51.978;5.330;2024-02-21T06:31:14;33.30;;;30.50;;
14187;SDS011;7175;51.978;5.330;2024-02-21T06:33:44;34.07;;;31.27;;
14187;SDS011;7175;51.978;5.330;2024-02-21T06:36:12;34.47;;;31.57;;
14187;SDS011;7175;51.978;5.330;2024-02-21T06:38:41;34.50;;;31.60;;
14187;SDS011;7175;51.978;5.330;2024-02-21T06:41:14;34.60;;;31.70;;
14187;SDS011;7175;51.978;5.330;2024-02-21T06:43:44;36.50;;;33.60;;
14187;SDS011;7175;51.978;5.330;2024-02-21T06:46:22;36.10;;;33.20;;
14187;SDS011;7175;51.978;5.330;2024-02-21T06:48:50;34.07;;;31.27;;
14187;SDS011;7175;51.978;5.330;2024-02-21T06:51:19;34.77;;;31.87;;
14187;SDS011;7175;51.978;5.330;2024-02-21T06:53:47;33.27;;;30.47;;
14187;SDS011;7175;51.978;5.330;2024-02-21T06:56:16;34.90;;;32.00;;
14187;SDS011;7175;51.978;5.330;2024-02-21T06:58:45;38.57;;;35.27;;
14187;SDS011;7175;51.978;5.330;2024-02-21T07:01:14;39.87;;;36.47;;
14187;SDS011;7175;51.978;5.330;2024-02-21T07:03:42;37.70;;;34.40;;
14187;SDS011;7175;51.978;5.330;2024-02-21T07:06:11;36.10;;;32.80;;
14187;SDS011;7175;51.978;5.330;2024-02-21T07:08:39;35.60;;;32.30;;
14187;SDS011;7175;51.978;5.330;2024-02-21T07:11:07;33.43;;;30.23;;
14187;SDS011;7175;51.978;5.330;2024-02-21T07:13:36;33.93;;;30.73;;
14187;SDS011;7175;51.978;5.330;2024-02-21T07:16:06;33.27;;;30.17;;
14187;SDS011;7175;51.978;5.330;2024-02-21T07:18:35;32.97;;;29.87;;
14187;SDS011;7175;51.978;5.330;2024-02-21T07:21:03;32.90;;;29.80;;
14187;SDS011;7175;51.978;5.330;2024-02-21T07:23:32;33.10;;;30.00;;
14187;SDS011;7175;51.978;5.330;2024-02-21T07:26:00;33.53;;;30.43;;
14187;SDS011;7175;51.978;5.330;2024-02-21T07:28:29;33.20;;;30.10;;
14187;SDS011;7175;51.978;5.330;2024-02-21T07:30:58;33.97;;;30.87;;
14187;SDS011;7175;51.978;5.330;2024-02-21T07:33:28;33.50;;;30.40;;
14187;SDS011;7175;51.978;5.330;2024-02-21T07:35:57;33.67;;;30.57;;
14187;SDS011;7175;51.978;5.330;2024-02-21T07:38:25;32.93;;;29.93;;
14187;SDS011;7175;51.978;5.330;2024-02-21T07:40:54;32.83;;;29.77;;
14187;SDS011;7175;51.978;5.330;2024-02-21T07:43:22;33.50;;;30.40;;
14187;SDS011;7175;51.978;5.330;2024-02-21T07:45:52;34.40;;;31.20;;
14187;SDS011;7175;51.978;5.330;2024-02-21T07:48:21;33.43;;;30.33;;
14187;SDS011;7175;51.978;5.330;2024-02-21T07:50:52;31.83;;;28.83;;
14187;SDS011;7175;51.978;5.330;2024-02-21T07:53:20;32.07;;;29.07;;
14187;SDS011;7175;51.978;5.330;2024-02-21T07:55:49;33.93;;;30.83;;
14187;SDS011;7175;51.978;5.330;2024-02-21T07:58:17;33.40;;;30.30;;
14187;SDS011;7175;51.978;5.330;2024-02-21T08:00:46;33.50;;;30.40;;
14187;SDS011;7175;51.978;5.330;2024-02-21T08:03:14;33.30;;;30.30;;
14187;SDS011;7175;51.978;5.330;2024-02-21T08:05:44;33.83;;;30.73;;
14187;SDS011;7175;51.978;5.330;2024-02-21T08:08:14;33.13;;;30.13;;
14187;SDS011;7175;51.978;5.330;2024-02-21T08:10:44;31.80;;;28.80;;
14187;SDS011;7175;51.978;5.330;2024-02-21T08:13:13;31.40;;;28.50;;
14187;SDS011;7175;51.978;5.330;2024-02-21T08:15:42;30.57;;;27.67;;
14187;SDS011;7175;51.978;5.330;2024-02-21T08:18:10;30.23;;;27.33;;
14187;SDS011;7175;51.978;5.330;2024-02-21T08:20:39;30.03;;;27.23;;
14187;SDS011;7175;51.978;5.330;2024-02-21T08:23:07;28.70;;;26.00;;
14187;SDS011;7175;51.978;5.330;2024-02-21T08:25:37;29.43;;;26.73;;
14187;SDS011;7175;51.978;5.330;2024-02-21T08:36:19;26.37;;;23.87;;
14187;SDS011;7175;51.978;5.330;2024-02-21T08:38:48;26.57;;;24.07;;
14187;SDS011;7175;51.978;5.330;2024-02-21T08:41:17;26.07;;;23.57;;
14187;SDS011;7175;51.978;5.330;2024-02-21T08:43:51;25.53;;;23.13;;
14187;SDS011;7175;51.978;5.330;2024-02-21T08:46:20;25.47;;;23.07;;
14187;SDS011;7175;51.978;5.330;2024-02-21T08:48:50;25.60;;;23.20;;
14187;SDS011;7175;51.978;5.330;2024-02-21T08:51:19;25.90;;;23.40;;
14187;SDS011;7175;51.978;5.330;2024-02-21T08:53:48;26.30;;;23.80;;
14187;SDS011;7175;51.978;5.330;2024-02-21T08:56:19;26.27;;;23.77;;
14187;SDS011;7175;51.978;5.330;2024-02-21T08:58:48;25.27;;;22.87;;
14187;SDS011;7175;51.978;5.330;2024-02-21T09:01:16;24.93;;;22.53;;
14187;SDS011;7175;51.978;5.330;2024-02-21T09:03:45;24.60;;;22.20;;
14187;SDS011;7175;51.978;5.330;2024-02-21T09:06:13;24.20;;;21.90;;
14187;SDS011;7175;51.978;5.330;2024-02-21T09:08:42;25.17;;;22.77;;
14187;SDS011;7175;51.978;5.330;2024-02-21T09:11:10;25.30;;;22.90;;
14187;SDS011;7175;51.978;5.330;2024-02-21T09:13:40;24.73;;;22.43;;
14187;SDS011;7175;51.978;5.330;2024-02-21T09:16:09;25.07;;;22.77;;
14187;SDS011;7175;51.978;5.330;2024-02-21T09:18:37;24.97;;;22.67;;
14187;SDS011;7175;51.978;5.330;2024-02-21T09:21:06;24.47;;;22.17;;
14187;SDS011;7175;51.978;5.330;2024-02-21T09:23:34;24.03;;;21.73;;
14187;SDS011;7175;51.978;5.330;2024-02-21T09:26:03;24.17;;;21.87;;
14187;SDS011;7175;51.978;5.330;2024-02-21T09:28:31;24.23;;;21.93;;
14187;SDS011;7175;51.978;5.330;2024-02-21T09:31:02;23.30;;;21.10;;
14187;SDS011;7175;51.978;5.330;2024-02-21T09:33:30;21.77;;;19.67;;
14187;SDS011;7175;51.978;5.330;2024-02-21T09:35:59;22.27;;;20.13;;
14187;SDS011;7175;51.978;5.330;2024-02-21T09:38:27;22.73;;;20.53;;
14187;SDS011;7175;51.978;5.330;2024-02-21T09:40:59;23.13;;;20.93;;
14187;SDS011;7175;51.978;5.330;2024-02-21T09:43:28;23.03;;;20.83;;
14187;SDS011;7175;51.978;5.330;2024-02-21T09:45:57;23.07;;;20.87;;
14187;SDS011;7175;51.978;5.330;2024-02-21T09:48:30;23.67;;;21.47;;
14187;SDS011;7175;51.978;5.330;2024-02-21T09:51:01;23.23;;;21.03;;
14187;SDS011;7175;51.978;5.330;2024-02-21T09:53:30;23.27;;;21.07;;
14187;SDS011;7175;51.978;5.330;2024-02-21T09:56:00;23.03;;;20.83;;
14187;SDS011;7175;51.978;5.330;2024-02-21T09:58:30;23.17;;;20.97;;
14187;SDS011;7175;51.978;5.330;2024-02-21T10:01:00;23.07;;;20.87;;
14187;SDS011;7175;51.978;5.330;2024-02-21T10:03:37;23.20;;;21.10;;
14187;SDS011;7175;51.978;5.330;2024-02-21T10:06:06;23.37;;;21.17;;
14187;SDS011;7175;51.978;5.330;2024-02-21T10:08:34;22.47;;;20.37;;
14187;SDS011;7175;51.978;5.330;2024-02-21T10:11:03;22.40;;;20.30;;
14187;SDS011;7175;51.978;5.330;2024-02-21T10:13:31;22.93;;;20.83;;
14187;SDS011;7175;51.978;5.330;2024-02-21T10:16:00;22.03;;;19.97;;
14187;SDS011;7175;51.978;5.330;2024-02-21T10:18:29;22.60;;;20.50;;
14187;SDS011;7175;51.978;5.330;2024-02-21T10:21:02;22.43;;;20.33;;
14187;SDS011;7175;51.978;5.330;2024-02-21T10:23:41;22.27;;;20.17;;
14187;SDS011;7175;51.978;5.330;2024-02-21T10:26:09;22.27;;;20.17;;
14187;SDS011;7175;51.978;5.330;2024-02-21T10:28:38;22.00;;;19.90;;
14187;SDS011;7175;51.978;5.330;2024-02-21T10:31:08;22.33;;;20.23;;
14187;SDS011;7175;51.978;5.330;2024-02-21T10:33:37;22.03;;;19.93;;
14187;SDS011;7175;51.978;5.330;2024-02-21T10:36:08;22.73;;;20.63;;
14187;SDS011;7175;51.978;5.330;2024-02-21T10:38:37;22.40;;;20.30;;
14187;SDS011;7175;51.978;5.330;2024-02-21T10:41:05;22.30;;;20.20;;
14187;SDS011;7175;51.978;5.330;2024-02-21T10:43:37;22.30;;;20.20;;
14187;SDS011;7175;51.978;5.330;2024-02-21T10:46:07;21.93;;;19.83;;
14187;SDS011;7175;51.978;5.330;2024-02-21T10:48:41;22.90;;;20.80;;
14187;SDS011;7175;51.978;5.330;2024-02-21T10:51:14;22.83;;;20.73;;
14187;SDS011;7175;51.978;5.330;2024-02-21T10:53:44;21.90;;;19.90;;
14187;SDS011;7175;51.978;5.330;2024-02-21T10:56:22;21.93;;;19.90;;
14187;SDS011;7175;51.978;5.330;2024-02-21T10:58:51;22.27;;;20.17;;
14187;SDS011;7175;51.978;5.330;2024-02-21T11:01:21;21.73;;;19.73;;
14187;SDS011;7175;51.978;5.330;2024-02-21T11:03:53;20.80;;;18.90;;
14187;SDS011;7175;51.978;5.330;2024-02-21T11:06:23;19.90;;;18.00;;
14187;SDS011;7175;51.978;5.330;2024-02-21T11:09:03;21.00;;;19.00;;
14187;SDS011;7175;51.978;5.330;2024-02-21T11:11:35;21.20;;;19.20;;
14187;SDS011;7175;51.978;5.330;2024-02-21T11:14:09;21.00;;;19.00;;
14187;SDS011;7175;51.978;5.330;2024-02-21T11:16:38;20.80;;;18.80;;
14187;SDS011;7175;51.978;5.330;2024-02-21T11:19:07;20.80;;;18.80;;
14187;SDS011;7175;51.978;5.330;2024-02-21T11:21:38;20.53;;;18.60;;
14187;SDS011;7175;51.978;5.330;2024-02-21T11:24:08;20.93;;;19.00;;
14187;SDS011;7175;51.978;5.330;2024-02-21T11:26:37;21.27;;;19.27;;
14187;SDS011;7175;51.978;5.330;2024-02-21T11:29:06;21.47;;;19.47;;
14187;SDS011;7175;51.978;5.330;2024-02-21T11:31:39;21.37;;;19.37;;
14187;SDS011;7175;51.978;5.330;2024-02-21T11:34:09;21.27;;;19.27;;
14187;SDS011;7175;51.978;5.330;2024-02-21T11:36:47;21.00;;;19.00;;
14187;SDS011;7175;51.978;5.330;2024-02-21T11:39:20;21.30;;;19.30;;
14187;SDS011;7175;51.978;5.330;2024-02-21T11:44:34;21.83;;;19.83;;
14187;SDS011;7175;51.978;5.330;2024-02-21T11:47:04;24.63;;;22.33;;
14187;SDS011;7175;51.978;5.330;2024-02-21T11:49:35;23.17;;;21.00;;
14187;SDS011;7175;51.978;5.330;2024-02-21T11:52:06;23.03;;;20.93;;
14187;SDS011;7175;51.978;5.330;2024-02-21T11:54:34;23.17;;;21.07;;
14187;SDS011;7175;51.978;5.330;2024-02-21T11:57:04;22.93;;;20.83;;
14187;SDS011;7175;51.978;5.330;2024-02-21T11:59:33;22.17;;;20.17;;
14187;SDS011;7175;51.978;5.330;2024-02-21T12:02:02;22.00;;;20.00;;
14187;SDS011;7175;51.978;5.330;2024-02-21T12:04:31;21.90;;;19.90;;
14187;SDS011;7175;51.978;5.330;2024-02-21T12:07:00;21.70;;;19.70;;
14187;SDS011;7175;51.978;5.330;2024-02-21T12:09:31;21.03;;;19.03;;
14187;SDS011;7175;51.978;5.330;2024-02-21T12:12:00;20.80;;;18.80;;
14187;SDS011;7175;51.978;5.330;2024-02-21T12:14:30;20.20;;;18.30;;
14187;SDS011;7175;51.978;5.330;2024-02-21T12:16:59;20.23;;;18.33;;
14187;SDS011;7175;51.978;5.330;2024-02-21T12:19:30;20.40;;;18.50;;
14187;SDS011;7175;51.978;5.330;2024-02-21T12:21:59;20.57;;;18.67;;
14187;SDS011;7175;51.978;5.330;2024-02-21T12:24:34;20.43;;;18.53;;
14187;SDS011;7175;51.978;5.330;2024-02-21T12:27:02;20.20;;;18.30;;
14187;SDS011;7175;51.978;5.330;2024-02-21T12:29:31;19.77;;;17.87;;
14187;SDS011;7175;51.978;5.330;2024-02-21T12:32:00;20.03;;;18.13;;
14187;SDS011;7175;51.978;5.330;2024-02-21T12:34:30;20.23;;;18.33;;
14187;SDS011;7175;51.978;5.330;2024-02-21T12:37:18;20.50;;;18.60;;
14187;SDS011;7175;51.978;5.330;2024-02-21T12:39:48;19.70;;;17.80;;
14187;SDS011;7175;51.978;5.330;2024-02-21T12:42:17;19.80;;;17.90;;
14187;SDS011;7175;51.978;5.330;2024-02-21T12:44:45;20.80;;;18.90;;
14187;SDS011;7175;51.978;5.330;2024-02-21T12:47:14;19.57;;;17.67;;
14187;SDS011;7175;51.978;5.330;2024-02-21T12:49:42;19.83;;;17.93;;
14187;SDS011;7175;51.978;5.330;2024-02-21T12:52:12;20.10;;;18.20;;
14187;SDS011;7175;51.978;5.330;2024-02-21T12:54:40;20.43;;;18.53;;
14187;SDS011;7175;51.978;5.330;2024-02-21T12:57:11;20.07;;;18.17;;
14187;SDS011;7175;51.978;5.330;2024-02-21T12:59:39;19.97;;;18.07;;
14187;SDS011;7175;51.978;5.330;2024-02-21T13:02:08;20.17;;;18.27;;
14187;SDS011;7175;51.978;5.330;2024-02-21T13:04:37;19.80;;;17.93;;
14187;SDS011;7175;51.978;5.330;2024-02-21T13:07:07;19.97;;;18.07;;
14187;SDS011;7175;51.978;5.330;2024-02-21T13:09:36;19.50;;;17.70;;
14187;SDS011;7175;51.978;5.330;2024-02-21T13:12:04;19.53;;;17.70;;
14187;SDS011;7175;51.978;5.330;2024-02-21T13:14:35;19.80;;;17.90;;
14187;SDS011;7175;51.978;5.330;2024-02-21T13:17:05;18.57;;;16.80;;
14187;SDS011;7175;51.978;5.330;2024-02-21T13:19:34;18.53;;;16.77;;
14187;SDS011;7175;51.978;5.330;2024-02-21T13:22:02;18.40;;;16.70;;
14187;SDS011;7175;51.978;5.330;2024-02-21T13:24:32;18.27;;;16.57;;
14187;SDS011;7175;51.978;5.330;2024-02-21T13:27:00;18.40;;;16.70;;
14187;SDS011;7175;51.978;5.330;2024-02-21T13:29:29;18.97;;;17.17;;
14187;SDS011;7175;51.978;5.330;2024-02-21T13:31:59;18.33;;;16.63;;
14187;SDS011;7175;51.978;5.330;2024-02-21T13:34:28;18.33;;;16.63;;
14187;SDS011;7175;51.978;5.330;2024-02-21T13:36:56;18.77;;;16.97;;
14187;SDS011;7175;51.978;5.330;2024-02-21T13:39:27;18.80;;;17.00;;
14187;SDS011;7175;51.978;5.330;2024-02-21T13:41:55;19.27;;;17.47;;
14187;SDS011;7175;51.978;5.330;2024-02-21T13:44:25;19.37;;;17.57;;
14187;SDS011;7175;51.978;5.330;2024-02-21T13:46:56;19.57;;;17.70;;
14187;SDS011;7175;51.978;5.330;2024-02-21T13:49:26;19.47;;;17.67;;
14187;SDS011;7175;51.978;5.330;2024-02-21T13:51:54;19.40;;;17.60;;
14187;SDS011;7175;51.978;5.330;2024-02-21T13:54:23;20.40;;;18.50;;
14187;SDS011;7175;51.978;5.330;2024-02-21T13:56:51;19.60;;;17.80;;
14187;SDS011;7175;51.978;5.330;2024-02-21T13:59:19;18.87;;;17.10;;
14187;SDS011;7175;51.978;5.330;2024-02-21T14:01:48;19.00;;;17.20;;
14187;SDS011;7175;51.978;5.330;2024-02-21T14:04:17;19.10;;;17.30;;
14187;SDS011;7175;51.978;5.330;2024-02-21T14:06:47;19.20;;;17.40;;
14187;SDS011;7175;51.978;5.330;2024-02-21T14:09:16;19.23;;;17.43;;
14187;SDS011;7175;51.978;5.330;2024-02-21T14:11:44;18.80;;;17.00;;
14187;SDS011;7175;51.978;5.330;2024-02-21T14:14:13;19.13;;;17.33;;
14187;SDS011;7175;51.978;5.330;2024-02-21T14:16:42;19.30;;;17.50;;
14187;SDS011;7175;51.978;5.330;2024-02-21T14:19:11;19.53;;;17.73;;
14187;SDS011;7175;51.978;5.330;2024-02-21T14:21:42;18.87;;;17.07;;
14187;SDS011;7175;51.978;5.330;2024-02-21T14:24:12;19.00;;;17.20;;
14187;SDS011;7175;51.978;5.330;2024-02-21T14:26:41;19.20;;;17.40;;
14187;SDS011;7175;51.978;5.330;2024-02-21T14:29:11;18.97;;;17.17;;
14187;SDS011;7175;51.978;5.330;2024-02-21T14:31:40;18.90;;;17.10;;
14187;SDS011;7175;51.978;5.330;2024-02-21T14:34:11;18.80;;;17.10;;
14187;SDS011;7175;51.978;5.330;2024-02-21T14:36:39;18.87;;;17.17;;
14187;SDS011;7175;51.978;5.330;2024-02-21T14:39:08;18.67;;;16.97;;
14187;SDS011;7175;51.978;5.330;2024-02-21T14:41:37;19.30;;;17.50;;
14187;SDS011;7175;51.978;5.330;2024-02-21T14:44:06;19.50;;;17.70;;
14187;SDS011;7175;51.978;5.330;2024-02-21T14:46:36;19.77;;;17.97;;
14187;SDS011;7175;51.978;5.330;2024-02-21T14:49:05;19.40;;;17.60;;
14187;SDS011;7175;51.978;5.330;2024-02-21T14:51:34;19.47;;;17.67;;
14187;SDS011;7175;51.978;5.330;2024-02-21T14:54:03;19.73;;;17.87;;
14187;SDS011;7175;51.978;5.330;2024-02-21T14:56:33;19.40;;;17.60;;